sensor_id;sensor_type;location;lat;lon;timestamp;pressure;altitude;pressure_sealevel;temperature;humidity
46534;BME280;32260;52.008;4.752;2023-02-08T00:02:23;104046.00;;;0.90;67.83
46534;BME280;32260;52.008;4.752;2023-02-08T00:04:49;104049.38;;;0.89;67.12
46534;BME280;32260;52.008;4.752;2023-02-08T00:07:16;104050.09;;;0.87;67.95
46534;BME280;32260;52.008;4.752;2023-02-08T00:09:42;104053.47;;;0.86;67.53
46534;BME280;32260;52.008;4.752;2023-02-08T00:12:08;104047.13;;;0.82;67.45
46534;BME280;32260;52.008;4.752;2023-02-08T00:14:35;104047.13;;;0.82;67.59
46534;BME280;32260;52.008;4.752;2023-02-08T00:17:01;104046.13;;;0.80;67.71
46534;BME280;32260;52.008;4.752;2023-02-08T00:19:27;104052.16;;;0.79;67.38
46534;BME280;32260;52.008;4.752;2023-02-08T00:21:53;104051.22;;;0.78;68.09
46534;BME280;32260;52.008;4.752;2023-02-08T00:24:19;104049.44;;;0.77;67.92
46534;BME280;32260;52.008;4.752;2023-02-08T00:26:45;104044.91;;;0.75;67.55
46534;BME280;32260;52.008;4.752;2023-02-08T00:29:11;104034.22;;;0.72;67.62
46534;BME280;32260;52.008;4.752;2023-02-08T00:31:38;104034.13;;;0.70;67.83
46534;BME280;32260;52.008;4.752;2023-02-08T00:34:04;104024.38;;;0.68;67.95
46534;BME280;32260;52.008;4.752;2023-02-08T00:36:30;104029.50;;;0.66;67.75
46534;BME280;32260;52.008;4.752;2023-02-08T00:38:56;104026.75;;;0.64;67.63
46534;BME280;32260;52.008;4.752;2023-02-08T00:41:22;104023.13;;;0.62;67.96
46534;BME280;32260;52.008;4.752;2023-02-08T00:43:48;104017.91;;;0.62;67.79
46534;BME280;32260;52.008;4.752;2023-02-08T00:46:15;104018.72;;;0.61;67.61
46534;BME280;32260;52.008;4.752;2023-02-08T00:48:41;104021.31;;;0.61;68.21
46534;BME280;32260;52.008;4.752;2023-02-08T00:51:09;104019.50;;;0.60;67.51
46534;BME280;32260;52.008;4.752;2023-02-08T00:53:39;104010.63;;;0.58;67.81
46534;BME280;32260;52.008;4.752;2023-02-08T00:56:07;104014.88;;;0.56;67.71
46534;BME280;32260;52.008;4.752;2023-02-08T00:58:34;104016.34;;;0.53;67.33
46534;BME280;32260;52.008;4.752;2023-02-08T01:01:01;104018.81;;;0.51;67.49
46534;BME280;32260;52.008;4.752;2023-02-08T01:03:27;104008.97;;;0.47;67.20
46534;BME280;32260;52.008;4.752;2023-02-08T01:05:58;104017.47;;;0.44;67.12
46534;BME280;32260;52.008;4.752;2023-02-08T01:08:25;104009.44;;;0.41;67.08
46534;BME280;32260;52.008;4.752;2023-02-08T01:10:51;104008.41;;;0.39;67.20
46534;BME280;32260;52.008;4.752;2023-02-08T01:13:17;104012.72;;;0.39;67.48
46534;BME280;32260;52.008;4.752;2023-02-08T01:15:44;104013.38;;;0.36;67.26
46534;BME280;32260;52.008;4.752;2023-02-08T01:18:10;104013.28;;;0.35;67.20
46534;BME280;32260;52.008;4.752;2023-02-08T01:20:36;104015.09;;;0.36;67.53
46534;BME280;32260;52.008;4.752;2023-02-08T01:23:03;104019.53;;;0.37;67.35
46534;BME280;32260;52.008;4.752;2023-02-08T01:25:29;104018.50;;;0.35;67.65
46534;BME280;32260;52.008;4.752;2023-02-08T01:27:55;104027.25;;;0.35;68.00
46534;BME280;32260;52.008;4.752;2023-02-08T01:30:22;104021.09;;;0.35;68.11
46534;BME280;32260;52.008;4.752;2023-02-08T01:32:48;104017.69;;;0.36;67.46
46534;BME280;32260;52.008;4.752;2023-02-08T01:35:14;104012.50;;;0.36;68.00
46534;BME280;32260;52.008;4.752;2023-02-08T01:37:41;104009.88;;;0.36;67.91
46534;BME280;32260;52.008;4.752;2023-02-08T01:40:07;104013.38;;;0.36;67.92
46534;BME280;32260;52.008;4.752;2023-02-08T01:42:33;104011.59;;;0.35;68.06
46534;BME280;32260;52.008;4.752;2023-02-08T01:47:42;104007.97;;;0.33;67.53
46534;BME280;32260;52.008;4.752;2023-02-08T01:50:10;104006.13;;;0.32;67.18
46534;BME280;32260;52.008;4.752;2023-02-08T01:52:37;104013.84;;;0.30;67.76
46534;BME280;32260;52.008;4.752;2023-02-08T01:55:09;104012.50;;;0.36;68.36
46534;BME280;32260;52.008;4.752;2023-02-08T01:57:36;104006.13;;;0.32;67.99
46534;BME280;32260;52.008;4.752;2023-02-08T02:00:11;104002.84;;;0.35;67.77
46534;BME280;32260;52.008;4.752;2023-02-08T02:02:39;104005.25;;;0.31;68.10
46534;BME280;32260;52.008;4.752;2023-02-08T02:05:06;104007.75;;;0.30;67.40
46534;BME280;32260;52.008;4.752;2023-02-08T02:07:32;104004.09;;;0.28;68.02
46534;BME280;32260;52.008;4.752;2023-02-08T02:10:06;104005.78;;;0.27;67.76
46534;BME280;32260;52.008;4.752;2023-02-08T02:12:35;104011.00;;;0.27;67.80
46534;BME280;32260;52.008;4.752;2023-02-08T02:15:03;104012.63;;;0.25;67.40
46534;BME280;32260;52.008;4.752;2023-02-08T02:17:30;104006.47;;;0.25;68.03
46534;BME280;32260;52.008;4.752;2023-02-08T02:23:28;104000.03;;;0.31;67.30
46534;BME280;32260;52.008;4.752;2023-02-08T02:26:19;103996.38;;;0.29;67.45
46534;BME280;32260;52.008;4.752;2023-02-08T02:29:14;103987.53;;;0.27;67.97
46534;BME280;32260;52.008;4.752;2023-02-08T02:33:40;103997.06;;;0.27;67.21
46534;BME280;32260;52.008;4.752;2023-02-08T02:37:47;103981.88;;;0.21;67.70
46534;BME280;32260;52.008;4.752;2023-02-08T02:41:40;103975.06;;;0.23;68.00
46534;BME280;32260;52.008;4.752;2023-02-08T02:43:33;103969.41;;;0.17;68.12
46534;BME280;32260;52.008;4.752;2023-02-08T02:49:08;103976.00;;;0.12;67.74
46534;BME280;32260;52.008;4.752;2023-02-08T02:51:45;103974.28;;;0.12;67.68
46534;BME280;32260;52.008;4.752;2023-02-08T02:54:18;103973.97;;;0.08;67.70
46534;BME280;32260;52.008;4.752;2023-02-08T02:56:49;103969.63;;;0.08;67.19
46534;BME280;32260;52.008;4.752;2023-02-08T02:59:17;103968.50;;;0.05;67.17
46534;BME280;32260;52.008;4.752;2023-02-08T03:01:46;103972.72;;;0.03;67.24
46534;BME280;32260;52.008;4.752;2023-02-08T03:04:15;103971.69;;;0.01;67.88
46534;BME280;32260;52.008;4.752;2023-02-08T03:10:02;103969.53;;;0.07;67.85
46534;BME280;32260;52.008;4.752;2023-02-08T03:13:03;103967.81;;;0.07;67.82
46534;BME280;32260;52.008;4.752;2023-02-08T03:15:53;103973.03;;;0.07;67.79
46534;BME280;32260;52.008;4.752;2023-02-08T03:26:30;103971.59;;;-0.01;67.46
46534;BME280;32260;52.008;4.752;2023-02-08T03:29:08;103976.56;;;-0.04;67.58
46534;BME280;32260;52.008;4.752;2023-02-08T03:31:58;103971.44;;;-0.03;66.95
46534;BME280;32260;52.008;4.752;2023-02-08T03:34:37;103977.34;;;-0.05;67.99
46534;BME280;32260;52.008;4.752;2023-02-08T03:37:14;103978.03;;;-0.08;67.61
46534;BME280;32260;52.008;4.752;2023-02-08T03:39:41;103968.28;;;0.02;67.42
46534;BME280;32260;52.008;4.752;2023-02-08T03:42:14;103971.81;;;-0.10;67.45
46534;BME280;32260;52.008;4.752;2023-02-08T03:44:45;103968.06;;;-0.13;67.52
46534;BME280;32260;52.008;4.752;2023-02-08T03:47:15;103966.13;;;-0.04;67.60
46534;BME280;32260;52.008;4.752;2023-02-08T03:49:43;103955.56;;;-0.18;68.08
46534;BME280;32260;52.008;4.752;2023-02-08T03:52:11;103965.88;;;-0.19;67.32
46534;BME280;32260;52.008;4.752;2023-02-08T03:54:44;103968.50;;;-0.19;67.10
46534;BME280;32260;52.008;4.752;2023-02-08T03:57:23;103960.78;;;-0.18;67.52
46534;BME280;32260;52.008;4.752;2023-02-08T04:00:11;103959.44;;;-0.24;67.66
46534;BME280;32260;52.008;4.752;2023-02-08T04:02:42;103958.53;;;-0.25;67.70
46534;BME280;32260;52.008;4.752;2023-02-08T04:05:12;103966.09;;;-0.28;67.24
46534;BME280;32260;52.008;4.752;2023-02-08T04:07:38;103968.59;;;-0.29;66.83
46534;BME280;32260;52.008;4.752;2023-02-08T04:10:04;103972.00;;;-0.30;67.51
46534;BME280;32260;52.008;4.752;2023-02-08T04:12:31;103980.59;;;-0.31;67.16
46534;BME280;32260;52.008;4.752;2023-02-08T04:14:57;103980.50;;;-0.33;67.71
46534;BME280;32260;52.008;4.752;2023-02-08T04:17:23;103979.59;;;-0.34;67.69
46534;BME280;32260;52.008;4.752;2023-02-08T04:19:49;103972.56;;;-0.35;67.91
46534;BME280;32260;52.008;4.752;2023-02-08T04:22:15;103973.34;;;-0.36;67.71
46534;BME280;32260;52.008;4.752;2023-02-08T04:24:41;103969.84;;;-0.36;67.15
46534;BME280;32260;52.008;4.752;2023-02-08T04:27:07;103974.91;;;-0.38;66.99
46534;BME280;32260;52.008;4.752;2023-02-08T04:29:33;103973.00;;;-0.40;67.34
46534;BME280;32260;52.008;4.752;2023-02-08T04:31:59;103962.56;;;-0.40;67.97
46534;BME280;32260;52.008;4.752;2023-02-08T04:34:25;103962.47;;;-0.42;67.78
46534;BME280;32260;52.008;4.752;2023-02-08T04:36:52;103955.53;;;-0.41;67.92
46534;BME280;32260;52.008;4.752;2023-02-08T04:39:18;103960.75;;;-0.41;67.53
46534;BME280;32260;52.008;4.752;2023-02-08T04:41:44;103963.50;;;-0.40;67.54
46534;BME280;32260;52.008;4.752;2023-02-08T04:44:10;103955.69;;;-0.40;67.68
46534;BME280;32260;52.008;4.752;2023-02-08T04:46:36;103955.69;;;-0.40;67.70
46534;BME280;32260;52.008;4.752;2023-02-08T04:49:02;103954.88;;;-0.39;67.61
46534;BME280;32260;52.008;4.752;2023-02-08T04:51:28;103946.25;;;-0.38;68.11
46534;BME280;32260;52.008;4.752;2023-02-08T04:53:54;103948.75;;;-0.39;68.36
46534;BME280;32260;52.008;4.752;2023-02-08T04:56:20;103939.25;;;-0.39;67.48
46534;BME280;32260;52.008;4.752;2023-02-08T04:58:47;103943.56;;;-0.39;67.63
46534;BME280;32260;52.008;4.752;2023-02-08T05:01:14;103947.88;;;-0.40;68.18
46534;BME280;32260;52.008;4.752;2023-02-08T05:03:41;103941.97;;;-0.37;67.44
46534;BME280;32260;52.008;4.752;2023-02-08T05:06:07;103947.19;;;-0.37;68.06
46534;BME280;32260;52.008;4.752;2023-02-08T05:08:33;103943.81;;;-0.36;67.32
46534;BME280;32260;52.008;4.752;2023-02-08T05:10:59;103949.13;;;-0.35;67.88
46534;BME280;32260;52.008;4.752;2023-02-08T05:13:25;103944.91;;;-0.33;67.84
46534;BME280;32260;52.008;4.752;2023-02-08T05:15:51;103944.91;;;-0.33;67.72
46534;BME280;32260;52.008;4.752;2023-02-08T05:18:17;103944.13;;;-0.31;67.91
46534;BME280;32260;52.008;4.752;2023-02-08T05:20:44;103948.34;;;-0.34;67.26
46534;BME280;32260;52.008;4.752;2023-02-08T05:23:10;103951.03;;;-0.32;67.77
46534;BME280;32260;52.008;4.752;2023-02-08T05:25:37;103951.84;;;-0.33;67.52
46534;BME280;32260;52.008;4.752;2023-02-08T05:28:04;103950.00;;;-0.34;68.07
46534;BME280;32260;52.008;4.752;2023-02-08T05:30:30;103940.38;;;-0.35;67.67
46534;BME280;32260;52.008;4.752;2023-02-08T05:32:56;103940.38;;;-0.35;67.63
46534;BME280;32260;52.008;4.752;2023-02-08T05:35:22;103935.16;;;-0.35;67.36
46534;BME280;32260;52.008;4.752;2023-02-08T05:37:48;103940.38;;;-0.35;67.04
46534;BME280;32260;52.008;4.752;2023-02-08T05:40:14;103930.88;;;-0.35;67.80
46534;BME280;32260;52.008;4.752;2023-02-08T05:42:40;103935.06;;;-0.37;67.07
46534;BME280;32260;52.008;4.752;2023-02-08T05:45:07;103938.59;;;-0.36;67.42
46534;BME280;32260;52.008;4.752;2023-02-08T05:47:33;103935.06;;;-0.37;67.13
46534;BME280;32260;52.008;4.752;2023-02-08T05:49:59;103935.84;;;-0.38;66.88
46534;BME280;32260;52.008;4.752;2023-02-08T05:52:25;103941.06;;;-0.38;67.09
46534;BME280;32260;52.008;4.752;2023-02-08T05:54:51;103931.41;;;-0.39;67.60
46534;BME280;32260;52.008;4.752;2023-02-08T05:57:17;103925.22;;;-0.41;67.48
46534;BME280;32260;52.008;4.752;2023-02-08T05:59:43;103920.00;;;-0.41;67.62
46534;BME280;32260;52.008;4.752;2023-02-08T06:02:09;103915.47;;;-0.43;67.52
46534;BME280;32260;52.008;4.752;2023-02-08T06:04:35;103916.47;;;-0.41;67.37
46534;BME280;32260;52.008;4.752;2023-02-08T06:07:04;103920.78;;;-0.42;67.89
46534;BME280;32260;52.008;4.752;2023-02-08T06:09:30;103918.19;;;-0.42;67.82
46534;BME280;32260;52.008;4.752;2023-02-08T06:11:56;103920.00;;;-0.41;67.86
46534;BME280;32260;52.008;4.752;2023-02-08T06:14:22;103911.41;;;-0.40;67.76
46534;BME280;32260;52.008;4.752;2023-02-08T06:16:48;103925.44;;;-0.38;67.32
46534;BME280;32260;52.008;4.752;2023-02-08T06:19:14;103925.44;;;-0.38;68.14
46534;BME280;32260;52.008;4.752;2023-02-08T06:21:41;103926.34;;;-0.37;67.55
46534;BME280;32260;52.008;4.752;2023-02-08T06:24:07;103915.00;;;-0.38;67.88
46534;BME280;32260;52.008;4.752;2023-02-08T06:26:34;103920.22;;;-0.38;67.95
46534;BME280;32260;52.008;4.752;2023-02-08T06:29:01;103914.00;;;-0.40;67.54
46534;BME280;32260;52.008;4.752;2023-02-08T06:31:27;103921.81;;;-0.40;67.29
46534;BME280;32260;52.008;4.752;2023-02-08T06:33:53;103919.06;;;-0.41;67.70
46534;BME280;32260;52.008;4.752;2023-02-08T06:36:19;103926.78;;;-0.43;67.85
46534;BME280;32260;52.008;4.752;2023-02-08T06:38:45;103932.78;;;-0.44;67.51
46534;BME280;32260;52.008;4.752;2023-02-08T06:41:11;103938.91;;;-0.43;67.24
46534;BME280;32260;52.008;4.752;2023-02-08T06:43:37;103943.19;;;-0.44;67.49
46534;BME280;32260;52.008;4.752;2023-02-08T06:46:03;103945.81;;;-0.44;67.68
46534;BME280;32260;52.008;4.752;2023-02-08T06:48:33;103949.19;;;-0.45;67.26
46534;BME280;32260;52.008;4.752;2023-02-08T06:51:00;103949.09;;;-0.46;67.79
46534;BME280;32260;52.008;4.752;2023-02-08T06:53:26;103947.16;;;-0.49;67.26
46534;BME280;32260;52.008;4.752;2023-02-08T06:55:52;103939.34;;;-0.49;67.77
46534;BME280;32260;52.008;4.752;2023-02-08T06:58:19;103932.31;;;-0.50;67.79
46534;BME280;32260;52.008;4.752;2023-02-08T07:00:45;103929.72;;;-0.50;66.97
46534;BME280;32260;52.008;4.752;2023-02-08T07:03:13;103926.09;;;-0.52;67.12
46534;BME280;32260;52.008;4.752;2023-02-08T07:05:39;103927.00;;;-0.52;67.20
46534;BME280;32260;52.008;4.752;2023-02-08T07:08:06;103918.16;;;-0.54;67.62
46534;BME280;32260;52.008;4.752;2023-02-08T07:10:33;103924.28;;;-0.53;67.00
46534;BME280;32260;52.008;4.752;2023-02-08T07:13:01;103923.50;;;-0.52;67.59
46534;BME280;32260;52.008;4.752;2023-02-08T07:15:27;103933.91;;;-0.52;67.11
46534;BME280;32260;52.008;4.752;2023-02-08T07:17:55;103925.19;;;-0.53;66.87
46534;BME280;32260;52.008;4.752;2023-02-08T07:20:21;103927.78;;;-0.53;66.87
46534;BME280;32260;52.008;4.752;2023-02-08T07:22:47;103921.69;;;-0.53;67.01
46534;BME280;32260;52.008;4.752;2023-02-08T07:25:14;103929.50;;;-0.53;67.11
46534;BME280;32260;52.008;4.752;2023-02-08T07:27:40;103930.53;;;-0.51;67.46
46534;BME280;32260;52.008;4.752;2023-02-08T07:30:06;103929.72;;;-0.50;66.85
46534;BME280;32260;52.008;4.752;2023-02-08T07:32:33;103931.53;;;-0.49;67.17
46534;BME280;32260;52.008;4.752;2023-02-08T07:34:59;103931.78;;;-0.46;66.97
46534;BME280;32260;52.008;4.752;2023-02-08T07:37:26;103929.28;;;-0.44;67.65
46534;BME280;32260;52.008;4.752;2023-02-08T07:39:52;103930.19;;;-0.44;67.15
46534;BME280;32260;52.008;4.752;2023-02-08T07:42:18;103925.22;;;-0.41;67.64
46534;BME280;32260;52.008;4.752;2023-02-08T07:44:44;103924.53;;;-0.38;67.54
46534;BME280;32260;52.008;4.752;2023-02-08T07:47:10;103924.75;;;-0.35;67.54
46534;BME280;32260;52.008;4.752;2023-02-08T07:49:36;103930.09;;;-0.34;67.23
46534;BME280;32260;52.008;4.752;2023-02-08T07:52:02;103932.91;;;-0.30;66.88
46534;BME280;32260;52.008;4.752;2023-02-08T07:54:29;103923.63;;;-0.27;67.26
46534;BME280;32260;52.008;4.752;2023-02-08T07:56:55;103926.44;;;-0.24;67.10
46534;BME280;32260;52.008;4.752;2023-02-08T07:59:21;103927.47;;;-0.22;67.38
46534;BME280;32260;52.008;4.752;2023-02-08T08:01:47;103918.19;;;-0.18;67.03
46534;BME280;32260;52.008;4.752;2023-02-08T08:04:14;103918.41;;;-0.15;66.72
46534;BME280;32260;52.008;4.752;2023-02-08T08:06:40;103910.94;;;-0.10;67.23
46534;BME280;32260;52.008;4.752;2023-02-08T08:09:06;103910.50;;;-0.05;66.63
46534;BME280;32260;52.008;4.752;2023-02-08T08:11:32;103909.81;;;-0.02;67.09
46534;BME280;32260;52.008;4.752;2023-02-08T08:13:58;103904.94;;;0.03;67.39
46534;BME280;32260;52.008;4.752;2023-02-08T08:16:24;103899.94;;;0.06;67.26
46534;BME280;32260;52.008;4.752;2023-02-08T08:18:50;103909.78;;;0.10;66.86
46534;BME280;32260;52.008;4.752;2023-02-08T08:21:17;103906.63;;;0.14;66.68
46534;BME280;32260;52.008;4.752;2023-02-08T08:23:43;103903.44;;;0.18;66.32
46534;BME280;32260;52.008;4.752;2023-02-08T08:26:12;103905.25;;;0.19;65.96
46534;BME280;32260;52.008;4.752;2023-02-08T08:28:39;103907.06;;;0.20;66.63
46534;BME280;32260;52.008;4.752;2023-02-08T08:31:15;103908.50;;;0.28;66.45
46534;BME280;32260;52.008;4.752;2023-02-08T08:33:42;103911.09;;;0.28;66.46
46534;BME280;32260;52.008;4.752;2023-02-08T08:36:09;103913.97;;;0.31;66.31
46534;BME280;32260;52.008;4.752;2023-02-08T08:38:35;103917.00;;;0.38;66.34
46534;BME280;32260;52.008;4.752;2023-02-08T08:41:07;103912.22;;;0.44;66.36
46534;BME280;32260;52.008;4.752;2023-02-08T08:43:33;103903.81;;;0.48;66.55
46534;BME280;32260;52.008;4.752;2023-02-08T08:45:59;103917.41;;;0.56;66.51
46534;BME280;32260;52.008;4.752;2023-02-08T08:48:26;103905.47;;;0.59;66.64
46534;BME280;32260;52.008;4.752;2023-02-08T08:50:53;103896.25;;;0.64;66.63
46534;BME280;32260;52.008;4.752;2023-02-08T08:53:19;103896.50;;;0.68;66.18
46534;BME280;32260;52.008;4.752;2023-02-08T08:55:47;103895.78;;;0.70;66.43
46534;BME280;32260;52.008;4.752;2023-02-08T08:58:13;103896.31;;;0.78;66.05
46534;BME280;32260;52.008;4.752;2023-02-08T09:00:39;103897.53;;;0.83;65.78
46534;BME280;32260;52.008;4.752;2023-02-08T09:03:05;103896.16;;;0.88;66.20
46534;BME280;32260;52.008;4.752;2023-02-08T09:05:31;103892.16;;;0.93;65.54
46534;BME280;32260;52.008;4.752;2023-02-08T09:07:57;103890.88;;;1.00;65.72
46534;BME280;32260;52.008;4.752;2023-02-08T09:10:23;103899.25;;;1.08;65.55
46534;BME280;32260;52.008;4.752;2023-02-08T09:12:49;103897.84;;;1.13;65.83
46534;BME280;32260;52.008;4.752;2023-02-08T09:15:17;103900.09;;;1.20;65.77
46534;BME280;32260;52.008;4.752;2023-02-08T09:17:43;103905.91;;;1.29;65.67
46534;BME280;32260;52.008;4.752;2023-02-08T09:20:10;103897.69;;;1.37;65.49
46534;BME280;32260;52.008;4.752;2023-02-08T09:22:36;103900.81;;;1.44;65.23
46534;BME280;32260;52.008;4.752;2023-02-08T09:25:02;103898.75;;;1.52;65.04
46534;BME280;32260;52.008;4.752;2023-02-08T09:27:29;103900.25;;;1.62;65.44
46534;BME280;32260;52.008;4.752;2023-02-08T09:29:55;103899.97;;;1.71;64.90
46534;BME280;32260;52.008;4.752;2023-02-08T09:32:21;103900.56;;;1.80;64.59
46534;BME280;32260;52.008;4.752;2023-02-08T09:34:48;103898.53;;;1.89;64.60
46534;BME280;32260;52.008;4.752;2023-02-08T09:37:14;103903.50;;;1.98;64.17
46534;BME280;32260;52.008;4.752;2023-02-08T09:39:42;103907.56;;;2.08;64.03
46534;BME280;32260;52.008;4.752;2023-02-08T09:44:58;103912.38;;;2.29;63.43
46534;BME280;32260;52.008;4.752;2023-02-08T09:47:33;103906.03;;;2.38;63.86
46534;BME280;32260;52.008;4.752;2023-02-08T09:50:11;103910.13;;;2.48;63.41
46534;BME280;32260;52.008;4.752;2023-02-08T09:53:42;103909.69;;;2.55;63.54
46534;BME280;32260;52.008;4.752;2023-02-08T09:55:48;103908.03;;;2.71;63.20
46534;BME280;32260;52.008;4.752;2023-02-08T09:58:36;103908.59;;;2.80;62.58
46534;BME280;32260;52.008;4.752;2023-02-08T10:01:07;103897.41;;;2.83;62.40
46534;BME280;32260;52.008;4.752;2023-02-08T10:03:39;103895.28;;;2.90;62.07
46534;BME280;32260;52.008;4.752;2023-02-08T10:06:10;103905.56;;;3.02;62.88
46534;BME280;32260;52.008;4.752;2023-02-08T10:08:37;103898.38;;;3.13;63.25
46534;BME280;32260;52.008;4.752;2023-02-08T10:14:53;103905.81;;;3.35;62.16
46534;BME280;32260;52.008;4.752;2023-02-08T10:17:01;103908.50;;;3.52;62.87
46534;BME280;32260;52.008;4.752;2023-02-08T10:26:36;103918.06;;;3.81;62.16
46534;BME280;32260;52.008;4.752;2023-02-08T10:36:48;103912.38;;;4.20;61.16
46534;BME280;32260;52.008;4.752;2023-02-08T10:39:17;103916.25;;;4.27;60.38
46534;BME280;32260;52.008;4.752;2023-02-08T10:41:44;103915.78;;;4.34;60.60
46534;BME280;32260;52.008;4.752;2023-02-08T10:47:52;103907.09;;;4.51;60.42
46534;BME280;32260;52.008;4.752;2023-02-08T10:49:49;103907.78;;;4.64;59.09
46534;BME280;32260;52.008;4.752;2023-02-08T10:52:18;103909.06;;;4.72;59.38
46534;BME280;32260;52.008;4.752;2023-02-08T10:54:44;103906.28;;;4.85;60.15
46534;BME280;32260;52.008;4.752;2023-02-08T10:57:17;103900.03;;;5.00;58.79
46534;BME280;32260;52.008;4.752;2023-02-08T10:59:50;103894.34;;;5.09;58.28
46534;BME280;32260;52.008;4.752;2023-02-08T11:02:34;103892.25;;;5.19;57.02
46534;BME280;32260;52.008;4.752;2023-02-08T11:05:10;103881.19;;;5.25;57.73
46534;BME280;32260;52.008;4.752;2023-02-08T11:07:37;103889.50;;;5.34;59.03
46534;BME280;32260;52.008;4.752;2023-02-08T11:13:20;103879.47;;;5.62;57.69
46534;BME280;32260;52.008;4.752;2023-02-08T11:18:36;103867.22;;;5.80;56.30
46534;BME280;32260;52.008;4.752;2023-02-08T11:23:52;103875.72;;;5.93;54.24
46534;BME280;32260;52.008;4.752;2023-02-08T11:26:33;103864.16;;;6.07;56.31
46534;BME280;32260;52.008;4.752;2023-02-08T11:34:33;103863.91;;;6.40;56.28
46534;BME280;32260;52.008;4.752;2023-02-08T11:37:04;103856.41;;;6.48;54.77
46534;BME280;32260;52.008;4.752;2023-02-08T11:39:41;103863.81;;;6.57;54.98
46534;BME280;32260;52.008;4.752;2023-02-08T11:42:18;103856.53;;;6.71;54.58
46534;BME280;32260;52.008;4.752;2023-02-08T11:44:45;103847.78;;;6.72;53.60
46534;BME280;32260;52.008;4.752;2023-02-08T11:47:16;103840.34;;;6.83;54.56
46534;BME280;32260;52.008;4.752;2023-02-08T11:49:50;103846.66;;;6.86;52.65
46534;BME280;32260;52.008;4.752;2023-02-08T12:01:02;103815.72;;;7.23;53.50
46534;BME280;32260;52.008;4.752;2023-02-08T12:03:35;103814.66;;;7.40;54.33
46534;BME280;32260;52.008;4.752;2023-02-08T12:06:58;103811.84;;;7.58;53.10
46534;BME280;32260;52.008;4.752;2023-02-08T12:15:06;103801.25;;;7.80;50.01
46534;BME280;32260;52.008;4.752;2023-02-08T12:20:30;103791.16;;;7.92;48.41
46534;BME280;32260;52.008;4.752;2023-02-08T12:25:48;103774.84;;;8.02;46.90
46534;BME280;32260;52.008;4.752;2023-02-08T12:31:50;103763.16;;;8.20;47.63
46534;BME280;32260;52.008;4.752;2023-02-08T12:37:44;103760.97;;;8.32;47.72
46534;BME280;32260;52.008;4.752;2023-02-08T12:40:52;103751.50;;;8.37;48.76
46534;BME280;32260;52.008;4.752;2023-02-08T12:49:19;103747.66;;;8.53;46.32
46534;BME280;32260;52.008;4.752;2023-02-08T12:54:48;103732.22;;;8.66;46.38
46534;BME280;32260;52.008;4.752;2023-02-08T12:57:18;103733.22;;;8.69;44.47
46534;BME280;32260;52.008;4.752;2023-02-08T12:59:51;103727.22;;;8.73;43.48
46534;BME280;32260;52.008;4.752;2023-02-08T13:02:28;103730.00;;;8.78;45.01
46534;BME280;32260;52.008;4.752;2023-02-08T13:04:58;103731.84;;;8.81;44.35
46534;BME280;32260;52.008;4.752;2023-02-08T13:07:29;103718.78;;;8.85;43.76
46534;BME280;32260;52.008;4.752;2023-02-08T13:12:42;103708.63;;;8.98;45.83
46534;BME280;32260;52.008;4.752;2023-02-08T13:15:20;103709.88;;;9.09;45.72
46534;BME280;32260;52.008;4.752;2023-02-08T13:20:46;103699.72;;;9.23;43.02
46534;BME280;32260;52.008;4.752;2023-02-08T13:23:40;103695.47;;;9.28;44.21
46534;BME280;32260;52.008;4.752;2023-02-08T13:26:13;103693.63;;;9.26;43.38
46534;BME280;32260;52.008;4.752;2023-02-08T13:28:45;103686.69;;;9.29;43.91
46534;BME280;32260;52.008;4.752;2023-02-08T13:31:18;103683.25;;;9.32;43.10
46534;BME280;32260;52.008;4.752;2023-02-08T13:34:12;103680.75;;;9.36;42.46
46534;BME280;32260;52.008;4.752;2023-02-08T13:36:48;103672.75;;;9.35;42.53
46534;BME280;32260;52.008;4.752;2023-02-08T13:39:40;103664.97;;;9.39;43.00
46534;BME280;32260;52.008;4.752;2023-02-08T13:42:19;103664.06;;;9.39;41.51
46534;BME280;32260;52.008;4.752;2023-02-08T13:44:55;103661.56;;;9.44;42.54
46534;BME280;32260;52.008;4.752;2023-02-08T13:47:32;103662.59;;;9.49;43.23
46534;BME280;32260;52.008;4.752;2023-02-08T13:50:01;103663.53;;;9.51;41.93
46534;BME280;32260;52.008;4.752;2023-02-08T14:03:32;103645.38;;;9.63;41.20
46534;BME280;32260;52.008;4.752;2023-02-08T14:06:00;103647.97;;;9.62;41.05
46534;BME280;32260;52.008;4.752;2023-02-08T14:11:25;103641.22;;;9.73;41.19
46534;BME280;32260;52.008;4.752;2023-02-08T14:16:37;103639.53;;;9.75;41.19
46534;BME280;32260;52.008;4.752;2023-02-08T14:21:45;103634.19;;;9.74;40.85
46534;BME280;32260;52.008;4.752;2023-02-08T14:24:27;103625.28;;;9.71;39.52
46534;BME280;32260;52.008;4.752;2023-02-08T14:29:43;103619.00;;;9.68;40.15
46534;BME280;32260;52.008;4.752;2023-02-08T14:32:23;103618.31;;;9.74;40.13
46534;BME280;32260;52.008;4.752;2023-02-08T14:34:58;103618.31;;;9.74;39.51
46534;BME280;32260;52.008;4.752;2023-02-08T14:37:30;103613.81;;;9.71;40.03
46534;BME280;32260;52.008;4.752;2023-02-08T14:42:59;103595.31;;;9.73;41.14
46534;BME280;32260;52.008;4.752;2023-02-08T14:45:29;103590.88;;;9.71;41.46
46534;BME280;32260;52.008;4.752;2023-02-08T14:48:32;103583.91;;;9.75;40.50
46534;BME280;32260;52.008;4.752;2023-02-08T14:51:26;103584.88;;;9.77;40.89
46534;BME280;32260;52.008;4.752;2023-02-08T14:53:57;103574.06;;;9.69;41.33
46534;BME280;32260;52.008;4.752;2023-02-08T14:56:31;103577.56;;;9.68;40.12
46534;BME280;32260;52.008;4.752;2023-02-08T14:59:05;103571.31;;;9.66;40.68
46534;BME280;32260;52.008;4.752;2023-02-08T15:01:56;103572.28;;;9.68;40.11
46534;BME280;32260;52.008;4.752;2023-02-08T15:04:23;103566.88;;;9.65;40.65
46534;BME280;32260;52.008;4.752;2023-02-08T15:09:48;103558.91;;;9.64;40.17
46534;BME280;32260;52.008;4.752;2023-02-08T15:12:28;103556.44;;;9.70;40.66
46534;BME280;32260;52.008;4.752;2023-02-08T15:14:57;103553.69;;;9.67;40.07
46534;BME280;32260;52.008;4.752;2023-02-08T15:17:44;103545.81;;;9.68;39.11
46534;BME280;32260;52.008;4.752;2023-02-08T15:20:20;103542.25;;;9.68;40.84
46534;BME280;32260;52.008;4.752;2023-02-08T15:22:48;103542.13;;;9.63;40.33
46534;BME280;32260;52.008;4.752;2023-02-08T15:25:26;103543.84;;;9.61;40.43